sensor_id;sensor_type;location;lat;lon;timestamp;temperature;humidity
8595;DHT22;4335;48.860;9.198;2022-12-29T00:00:07;9.00;99.90
8595;DHT22;4335;48.860;9.198;2022-12-29T00:02:35;9.00;99.90
8595;DHT22;4335;48.860;9.198;2022-12-29T00:05:08;9.10;99.90
8595;DHT22;4335;48.860;9.198;2022-12-29T00:07:35;9.10;99.90
8595;DHT22;4335;48.860;9.198;2022-12-29T00:10:03;9.10;99.90
8595;DHT22;4335;48.860;9.198;2022-12-29T00:12:30;9.10;99.90
8595;DHT22;4335;48.860;9.198;2022-12-29T00:15:15;9.20;99.90
8595;DHT22;4335;48.860;9.198;2022-12-29T00:18:00;9.20;99.90
8595;DHT22;4335;48.860;9.198;2022-12-29T00:20:28;9.20;99.90
8595;DHT22;4335;48.860;9.198;2022-12-29T00:23:16;9.20;99.90
8595;DHT22;4335;48.860;9.198;2022-12-29T00:26:05;9.20;99.90
8595;DHT22;4335;48.860;9.198;2022-12-29T00:28:52;9.20;99.90
8595;DHT22;4335;48.860;9.198;2022-12-29T00:31:37;9.20;99.90
8595;DHT22;4335;48.860;9.198;2022-12-29T00:34:25;9.20;99.90
8595;DHT22;4335;48.860;9.198;2022-12-29T00:37:11;9.30;99.90
8595;DHT22;4335;48.860;9.198;2022-12-29T00:39:41;9.30;99.90
8595;DHT22;4335;48.860;9.198;2022-12-29T00:42:29;9.30;99.90
8595;DHT22;4335;48.860;9.198;2022-12-29T00:45:13;9.40;99.90
8595;DHT22;4335;48.860;9.198;2022-12-29T00:47:41;9.40;99.90
8595;DHT22;4335;48.860;9.198;2022-12-29T00:50:08;9.40;99.90
8595;DHT22;4335;48.860;9.198;2022-12-29T00:52:36;9.40;99.90
8595;DHT22;4335;48.860;9.198;2022-12-29T00:55:04;9.40;99.90
8595;DHT22;4335;48.860;9.198;2022-12-29T00:57:31;9.40;99.90
8595;DHT22;4335;48.860;9.198;2022-12-29T00:59:58;9.40;99.90
8595;DHT22;4335;48.860;9.198;2022-12-29T01:02:26;9.40;99.90
8595;DHT22;4335;48.860;9.198;2022-12-29T01:04:53;9.40;99.90
8595;DHT22;4335;48.860;9.198;2022-12-29T01:07:20;9.40;99.90
8595;DHT22;4335;48.860;9.198;2022-12-29T01:09:49;9.40;99.90
8595;DHT22;4335;48.860;9.198;2022-12-29T01:12:34;9.40;99.90
8595;DHT22;4335;48.860;9.198;2022-12-29T01:15:09;9.50;99.90
8595;DHT22;4335;48.860;9.198;2022-12-29T01:17:36;9.40;99.90
8595;DHT22;4335;48.860;9.198;2022-12-29T01:20:05;9.50;99.90
8595;DHT22;4335;48.860;9.198;2022-12-29T01:22:32;9.50;99.90
8595;DHT22;4335;48.860;9.198;2022-12-29T01:25:01;9.60;99.90
8595;DHT22;4335;48.860;9.198;2022-12-29T01:27:31;9.60;99.90
8595;DHT22;4335;48.860;9.198;2022-12-29T01:30:06;9.60;99.90
8595;DHT22;4335;48.860;9.198;2022-12-29T01:32:36;9.60;99.90
8595;DHT22;4335;48.860;9.198;2022-12-29T01:35:04;9.60;99.90
8595;DHT22;4335;48.860;9.198;2022-12-29T01:37:31;9.60;99.90
8595;DHT22;4335;48.860;9.198;2022-12-29T01:40:04;9.60;99.90
8595;DHT22;4335;48.860;9.198;2022-12-29T01:42:34;9.60;99.90
8595;DHT22;4335;48.860;9.198;2022-12-29T01:45:02;9.60;99.90
8595;DHT22;4335;48.860;9.198;2022-12-29T01:47:33;9.60;99.90
8595;DHT22;4335;48.860;9.198;2022-12-29T01:50:06;9.70;99.90
8595;DHT22;4335;48.860;9.198;2022-12-29T01:52:38;9.70;99.90
8595;DHT22;4335;48.860;9.198;2022-12-29T01:55:11;9.70;99.90
8595;DHT22;4335;48.860;9.198;2022-12-29T01:57:41;9.70;99.90
8595;DHT22;4335;48.860;9.198;2022-12-29T02:00:14;9.70;99.90
8595;DHT22;4335;48.860;9.198;2022-12-29T02:02:43;9.70;99.90
8595;DHT22;4335;48.860;9.198;2022-12-29T02:05:16;9.70;99.90
8595;DHT22;4335;48.860;9.198;2022-12-29T02:07:52;9.70;99.90
8595;DHT22;4335;48.860;9.198;2022-12-29T02:10:31;9.70;99.90
8595;DHT22;4335;48.860;9.198;2022-12-29T02:12:59;9.70;99.90
8595;DHT22;4335;48.860;9.198;2022-12-29T02:15:35;9.70;99.90
8595;DHT22;4335;48.860;9.198;2022-12-29T02:18:18;9.80;99.90
8595;DHT22;4335;48.860;9.198;2022-12-29T02:24:09;9.70;99.90
8595;DHT22;4335;48.860;9.198;2022-12-29T02:30:13;9.70;99.90
8595;DHT22;4335;48.860;9.198;2022-12-29T02:32:50;9.70;99.90
8595;DHT22;4335;48.860;9.198;2022-12-29T02:35:28;9.70;99.90
8595;DHT22;4335;48.860;9.198;2022-12-29T02:38:11;9.70;99.90
8595;DHT22;4335;48.860;9.198;2022-12-29T02:40:43;9.70;99.90
8595;DHT22;4335;48.860;9.198;2022-12-29T02:43:21;9.70;99.90
8595;DHT22;4335;48.860;9.198;2022-12-29T02:45:54;9.70;99.90
8595;DHT22;4335;48.860;9.198;2022-12-29T02:48:26;9.60;99.90
8595;DHT22;4335;48.860;9.198;2022-12-29T02:51:01;9.70;99.90
8595;DHT22;4335;48.860;9.198;2022-12-29T02:53:30;9.60;99.90
8595;DHT22;4335;48.860;9.198;2022-12-29T02:56:16;9.70;99.90
8595;DHT22;4335;48.860;9.198;2022-12-29T02:58:44;9.70;99.90
8595;DHT22;4335;48.860;9.198;2022-12-29T03:01:29;9.70;99.90
8595;DHT22;4335;48.860;9.198;2022-12-29T03:04:23;9.60;99.90
8595;DHT22;4335;48.860;9.198;2022-12-29T03:06:59;9.60;99.90
8595;DHT22;4335;48.860;9.198;2022-12-29T03:09:40;9.60;99.90
8595;DHT22;4335;48.860;9.198;2022-12-29T03:12:14;9.70;99.90
8595;DHT22;4335;48.860;9.198;2022-12-29T03:14:50;9.70;99.90
8595;DHT22;4335;48.860;9.198;2022-12-29T03:17:48;9.70;99.90
8595;DHT22;4335;48.860;9.198;2022-12-29T03:20:36;9.70;99.90
8595;DHT22;4335;48.860;9.198;2022-12-29T03:23:05;9.70;99.90
8595;DHT22;4335;48.860;9.198;2022-12-29T03:25:36;9.70;99.90
8595;DHT22;4335;48.860;9.198;2022-12-29T03:28:07;9.70;99.90
8595;DHT22;4335;48.860;9.198;2022-12-29T03:30:37;9.70;99.90
8595;DHT22;4335;48.860;9.198;2022-12-29T03:33:14;9.70;99.90
8595;DHT22;4335;48.860;9.198;2022-12-29T03:35:45;9.80;99.90
8595;DHT22;4335;48.860;9.198;2022-12-29T03:38:18;9.80;99.90
8595;DHT22;4335;48.860;9.198;2022-12-29T03:40:51;9.80;99.90
8595;DHT22;4335;48.860;9.198;2022-12-29T03:43:20;9.90;99.90
8595;DHT22;4335;48.860;9.198;2022-12-29T03:45:50;9.90;99.90
8595;DHT22;4335;48.860;9.198;2022-12-29T03:48:18;9.90;99.90
8595;DHT22;4335;48.860;9.198;2022-12-29T03:50:46;9.90;99.90
8595;DHT22;4335;48.860;9.198;2022-12-29T03:53:17;9.90;99.90
8595;DHT22;4335;48.860;9.198;2022-12-29T03:55:44;9.90;99.90
8595;DHT22;4335;48.860;9.198;2022-12-29T03:58:11;9.90;99.90
8595;DHT22;4335;48.860;9.198;2022-12-29T04:00:39;9.90;99.90
8595;DHT22;4335;48.860;9.198;2022-12-29T04:03:06;9.90;99.90
8595;DHT22;4335;48.860;9.198;2022-12-29T04:05:33;9.90;99.90
8595;DHT22;4335;48.860;9.198;2022-12-29T04:08:02;9.90;99.90
8595;DHT22;4335;48.860;9.198;2022-12-29T04:10:32;10.00;99.90
8595;DHT22;4335;48.860;9.198;2022-12-29T04:13:03;10.00;99.90
8595;DHT22;4335;48.860;9.198;2022-12-29T04:15:30;10.00;99.90
8595;DHT22;4335;48.860;9.198;2022-12-29T04:17:58;9.90;99.90
8595;DHT22;4335;48.860;9.198;2022-12-29T04:20:37;9.90;99.90
8595;DHT22;4335;48.860;9.198;2022-12-29T04:23:23;9.80;99.90
8595;DHT22;4335;48.860;9.198;2022-12-29T04:25:53;9.80;99.90
8595;DHT22;4335;48.860;9.198;2022-12-29T04:28:27;9.80;99.90
8595;DHT22;4335;48.860;9.198;2022-12-29T04:30:55;9.80;99.90
8595;DHT22;4335;48.860;9.198;2022-12-29T04:33:22;9.90;99.90
8595;DHT22;4335;48.860;9.198;2022-12-29T04:35:50;9.90;99.90
8595;DHT22;4335;48.860;9.198;2022-12-29T04:38:19;9.90;99.90
8595;DHT22;4335;48.860;9.198;2022-12-29T04:40:48;10.00;99.90
8595;DHT22;4335;48.860;9.198;2022-12-29T04:43:16;10.10;99.90
8595;DHT22;4335;48.860;9.198;2022-12-29T04:45:44;10.10;99.90
8595;DHT22;4335;48.860;9.198;2022-12-29T04:48:12;10.20;99.90
8595;DHT22;4335;48.860;9.198;2022-12-29T04:50:42;10.20;99.90
8595;DHT22;4335;48.860;9.198;2022-12-29T04:53:16;10.10;99.90
8595;DHT22;4335;48.860;9.198;2022-12-29T04:55:47;10.10;99.90
8595;DHT22;4335;48.860;9.198;2022-12-29T04:58:16;10.20;99.90
8595;DHT22;4335;48.860;9.198;2022-12-29T05:00:50;10.10;99.90
8595;DHT22;4335;48.860;9.198;2022-12-29T05:03:18;10.10;99.90
8595;DHT22;4335;48.860;9.198;2022-12-29T05:05:54;10.10;99.90
8595;DHT22;4335;48.860;9.198;2022-12-29T05:08:23;10.10;99.90
8595;DHT22;4335;48.860;9.198;2022-12-29T05:10:51;10.10;99.90
8595;DHT22;4335;48.860;9.198;2022-12-29T05:13:20;10.10;99.90
8595;DHT22;4335;48.860;9.198;2022-12-29T05:15:49;10.20;99.90
8595;DHT22;4335;48.860;9.198;2022-12-29T05:18:17;10.10;99.90
8595;DHT22;4335;48.860;9.198;2022-12-29T05:20:44;10.10;99.90
8595;DHT22;4335;48.860;9.198;2022-12-29T05:23:12;10.20;99.90
8595;DHT22;4335;48.860;9.198;2022-12-29T05:25:40;10.10;99.90
8595;DHT22;4335;48.860;9.198;2022-12-29T05:28:10;10.10;99.90
8595;DHT22;4335;48.860;9.198;2022-12-29T05:30:42;10.20;99.90
8595;DHT22;4335;48.860;9.198;2022-12-29T05:33:09;10.20;99.90
8595;DHT22;4335;48.860;9.198;2022-12-29T05:35:37;10.10;99.90
8595;DHT22;4335;48.860;9.198;2022-12-29T05:38:05;10.10;99.90
8595;DHT22;4335;48.860;9.198;2022-12-29T05:40:35;10.10;99.90
8595;DHT22;4335;48.860;9.198;2022-12-29T05:43:09;10.10;99.90
8595;DHT22;4335;48.860;9.198;2022-12-29T05:45:36;10.20;99.90
8595;DHT22;4335;48.860;9.198;2022-12-29T05:48:11;10.20;99.90
8595;DHT22;4335;48.860;9.198;2022-12-29T05:50:47;10.20;99.90
8595;DHT22;4335;48.860;9.198;2022-12-29T05:53:14;10.30;99.90
8595;DHT22;4335;48.860;9.198;2022-12-29T05:55:42;10.40;99.90
8595;DHT22;4335;48.860;9.198;2022-12-29T05:58:10;10.40;99.90
8595;DHT22;4335;48.860;9.198;2022-12-29T06:00:37;10.50;99.90
8595;DHT22;4335;48.860;9.198;2022-12-29T06:03:05;10.60;99.90
8595;DHT22;4335;48.860;9.198;2022-12-29T06:05:34;10.70;99.90
8595;DHT22;4335;48.860;9.198;2022-12-29T06:08:04;10.70;99.90
8595;DHT22;4335;48.860;9.198;2022-12-29T06:10:32;10.70;99.90
8595;DHT22;4335;48.860;9.198;2022-12-29T06:12:59;10.70;99.90
8595;DHT22;4335;48.860;9.198;2022-12-29T06:15:26;10.60;99.90
8595;DHT22;4335;48.860;9.198;2022-12-29T06:17:55;10.50;99.90
8595;DHT22;4335;48.860;9.198;2022-12-29T06:20:22;10.50;99.90
8595;DHT22;4335;48.860;9.198;2022-12-29T06:22:51;10.50;99.90
8595;DHT22;4335;48.860;9.198;2022-12-29T06:25:20;10.50;99.90
8595;DHT22;4335;48.860;9.198;2022-12-29T06:27:48;10.40;99.90
8595;DHT22;4335;48.860;9.198;2022-12-29T06:30:21;10.40;99.90
8595;DHT22;4335;48.860;9.198;2022-12-29T06:32:48;10.40;99.90
8595;DHT22;4335;48.860;9.198;2022-12-29T06:35:17;10.40;99.90
8595;DHT22;4335;48.860;9.198;2022-12-29T06:37:47;10.40;99.90
8595;DHT22;4335;48.860;9.198;2022-12-29T06:40:17;10.40;99.90
8595;DHT22;4335;48.860;9.198;2022-12-29T06:42:44;10.50;99.90
8595;DHT22;4335;48.860;9.198;2022-12-29T06:45:12;10.50;99.90
8595;DHT22;4335;48.860;9.198;2022-12-29T06:47:39;10.50;99.90
8595;DHT22;4335;48.860;9.198;2022-12-29T06:50:07;10.50;99.90
8595;DHT22;4335;48.860;9.198;2022-12-29T06:52:37;10.50;99.90
8595;DHT22;4335;48.860;9.198;2022-12-29T06:55:11;10.50;99.90
8595;DHT22;4335;48.860;9.198;2022-12-29T06:57:42;10.60;99.90
8595;DHT22;4335;48.860;9.198;2022-12-29T07:00:10;10.60;99.90
8595;DHT22;4335;48.860;9.198;2022-12-29T07:02:44;10.60;99.90
8595;DHT22;4335;48.860;9.198;2022-12-29T07:05:11;10.50;99.90
8595;DHT22;4335;48.860;9.198;2022-12-29T07:07:39;10.50;99.90
8595;DHT22;4335;48.860;9.198;2022-12-29T07:10:07;10.50;99.90
8595;DHT22;4335;48.860;9.198;2022-12-29T07:12:34;10.50;99.90
8595;DHT22;4335;48.860;9.198;2022-12-29T07:15:07;10.50;99.90
8595;DHT22;4335;48.860;9.198;2022-12-29T07:17:35;10.50;99.90
8595;DHT22;4335;48.860;9.198;2022-12-29T07:20:03;10.40;99.90
8595;DHT22;4335;48.860;9.198;2022-12-29T07:22:31;10.40;99.90
8595;DHT22;4335;48.860;9.198;2022-12-29T07:24:58;10.40;99.90
8595;DHT22;4335;48.860;9.198;2022-12-29T07:27:28;10.30;99.90
8595;DHT22;4335;48.860;9.198;2022-12-29T07:29:56;10.40;99.90
8595;DHT22;4335;48.860;9.198;2022-12-29T07:32:27;10.30;99.90
8595;DHT22;4335;48.860;9.198;2022-12-29T07:34:54;10.40;99.90
8595;DHT22;4335;48.860;9.198;2022-12-29T07:37:22;10.30;99.90
8595;DHT22;4335;48.860;9.198;2022-12-29T07:39:49;10.30;99.90
8595;DHT22;4335;48.860;9.198;2022-12-29T07:42:19;10.30;99.90
8595;DHT22;4335;48.860;9.198;2022-12-29T07:44:46;10.30;99.90
8595;DHT22;4335;48.860;9.198;2022-12-29T07:47:17;10.30;99.90
8595;DHT22;4335;48.860;9.198;2022-12-29T07:49:45;10.30;99.90
8595;DHT22;4335;48.860;9.198;2022-12-29T07:52:13;10.30;99.90
8595;DHT22;4335;48.860;9.198;2022-12-29T07:54:40;10.30;99.90
8595;DHT22;4335;48.860;9.198;2022-12-29T07:57:08;10.30;99.90
8595;DHT22;4335;48.860;9.198;2022-12-29T07:59:41;10.30;99.90
8595;DHT22;4335;48.860;9.198;2022-12-29T08:02:10;10.30;99.90
8595;DHT22;4335;48.860;9.198;2022-12-29T08:04:38;10.30;99.90
8595;DHT22;4335;48.860;9.198;2022-12-29T08:07:07;10.30;99.90
8595;DHT22;4335;48.860;9.198;2022-12-29T08:09:40;10.30;99.90
8595;DHT22;4335;48.860;9.198;2022-12-29T08:12:09;10.30;99.90
8595;DHT22;4335;48.860;9.198;2022-12-29T08:14:39;10.40;99.90
8595;DHT22;4335;48.860;9.198;2022-12-29T08:17:06;10.40;99.90
8595;DHT22;4335;48.860;9.198;2022-12-29T08:19:37;10.40;99.90
8595;DHT22;4335;48.860;9.198;2022-12-29T08:22:04;10.40;99.90
8595;DHT22;4335;48.860;9.198;2022-12-29T08:24:33;10.50;99.90
8595;DHT22;4335;48.860;9.198;2022-12-29T08:27:00;10.50;99.90
8595;DHT22;4335;48.860;9.198;2022-12-29T08:29:30;10.50;99.90
8595;DHT22;4335;48.860;9.198;2022-12-29T08:31:58;10.50;99.90
8595;DHT22;4335;48.860;9.198;2022-12-29T08:34:30;10.60;99.90
8595;DHT22;4335;48.860;9.198;2022-12-29T08:36:57;10.60;99.90
8595;DHT22;4335;48.860;9.198;2022-12-29T08:39:24;10.70;99.90
8595;DHT22;4335;48.860;9.198;2022-12-29T08:41:54;10.70;99.90
8595;DHT22;4335;48.860;9.198;2022-12-29T08:44:22;10.70;99.90
8595;DHT22;4335;48.860;9.198;2022-12-29T08:46:50;10.80;99.90
8595;DHT22;4335;48.860;9.198;2022-12-29T08:49:17;10.80;99.90
8595;DHT22;4335;48.860;9.198;2022-12-29T08:51:53;10.80;99.90
8595;DHT22;4335;48.860;9.198;2022-12-29T08:54:21;10.80;99.90
8595;DHT22;4335;48.860;9.198;2022-12-29T08:56:48;10.80;99.90
8595;DHT22;4335;48.860;9.198;2022-12-29T08:59:23;10.90;99.90
8595;DHT22;4335;48.860;9.198;2022-12-29T09:01:51;10.80;99.90
8595;DHT22;4335;48.860;9.198;2022-12-29T09:04:19;10.90;99.90
8595;DHT22;4335;48.860;9.198;2022-12-29T09:06:49;10.90;99.90
8595;DHT22;4335;48.860;9.198;2022-12-29T09:09:17;11.00;99.90
8595;DHT22;4335;48.860;9.198;2022-12-29T09:11:44;10.90;99.90
8595;DHT22;4335;48.860;9.198;2022-12-29T09:14:12;11.00;99.90
8595;DHT22;4335;48.860;9.198;2022-12-29T09:16:41;11.00;99.90
8595;DHT22;4335;48.860;9.198;2022-12-29T09:19:32;11.10;99.90
8595;DHT22;4335;48.860;9.198;2022-12-29T09:21:59;11.10;99.90
8595;DHT22;4335;48.860;9.198;2022-12-29T09:24:27;11.10;99.90
8595;DHT22;4335;48.860;9.198;2022-12-29T09:26:59;11.10;99.90
8595;DHT22;4335;48.860;9.198;2022-12-29T09:29:29;11.10;99.90
8595;DHT22;4335;48.860;9.198;2022-12-29T09:31:58;11.20;99.90
8595;DHT22;4335;48.860;9.198;2022-12-29T09:34:29;11.20;99.90
8595;DHT22;4335;48.860;9.198;2022-12-29T09:36:56;11.20;99.90
8595;DHT22;4335;48.860;9.198;2022-12-29T09:39:24;11.30;99.90
8595;DHT22;4335;48.860;9.198;2022-12-29T09:42:00;11.40;99.90
8595;DHT22;4335;48.860;9.198;2022-12-29T09:44:39;11.40;99.90
8595;DHT22;4335;48.860;9.198;2022-12-29T09:47:13;11.60;99.90
8595;DHT22;4335;48.860;9.198;2022-12-29T09:49:47;11.50;99.90
8595;DHT22;4335;48.860;9.198;2022-12-29T09:52:20;11.60;99.90
8595;DHT22;4335;48.860;9.198;2022-12-29T09:54:53;11.70;99.90
8595;DHT22;4335;48.860;9.198;2022-12-29T09:57:25;11.70;99.90
8595;DHT22;4335;48.860;9.198;2022-12-29T09:59:56;11.80;99.90
8595;DHT22;4335;48.860;9.198;2022-12-29T10:02:40;11.80;99.90
8595;DHT22;4335;48.860;9.198;2022-12-29T10:05:30;11.80;99.90
8595;DHT22;4335;48.860;9.198;2022-12-29T10:08:18;11.90;99.90
8595;DHT22;4335;48.860;9.198;2022-12-29T10:10:54;11.90;99.90
8595;DHT22;4335;48.860;9.198;2022-12-29T10:13:32;11.90;99.90
8595;DHT22;4335;48.860;9.198;2022-12-29T10:16:11;11.90;99.90
8595;DHT22;4335;48.860;9.198;2022-12-29T10:19:12;12.00;99.90
8595;DHT22;4335;48.860;9.198;2022-12-29T10:21:56;12.20;99.90
8595;DHT22;4335;48.860;9.198;2022-12-29T10:24:29;12.30;99.90
8595;DHT22;4335;48.860;9.198;2022-12-29T10:27:00;12.40;99.90
8595;DHT22;4335;48.860;9.198;2022-12-29T10:29:32;12.60;99.90
8595;DHT22;4335;48.860;9.198;2022-12-29T10:32:15;12.70;99.90
8595;DHT22;4335;48.860;9.198;2022-12-29T10:34:49;12.70;99.90
8595;DHT22;4335;48.860;9.198;2022-12-29T10:37:31;12.70;99.90
8595;DHT22;4335;48.860;9.198;2022-12-29T10:40:03;12.70;99.90
8595;DHT22;4335;48.860;9.198;2022-12-29T10:42:42;12.80;99.90
8595;DHT22;4335;48.860;9.198;2022-12-29T10:45:16;12.70;99.90
8595;DHT22;4335;48.860;9.198;2022-12-29T10:47:53;12.70;99.90
8595;DHT22;4335;48.860;9.198;2022-12-29T10:50:23;12.80;99.90
8595;DHT22;4335;48.860;9.198;2022-12-29T10:52:51;12.80;99.90
8595;DHT22;4335;48.860;9.198;2022-12-29T10:55:22;12.80;99.90
8595;DHT22;4335;48.860;9.198;2022-12-29T10:57:50;12.80;99.90
8595;DHT22;4335;48.860;9.198;2022-12-29T11:00:20;12.90;99.90
8595;DHT22;4335;48.860;9.198;2022-12-29T11:03:18;12.90;99.90
8595;DHT22;4335;48.860;9.198;2022-12-29T11:05:56;12.90;99.90
8595;DHT22;4335;48.860;9.198;2022-12-29T11:08:30;13.00;99.90
8595;DHT22;4335;48.860;9.198;2022-12-29T11:11:07;13.10;99.90
8595;DHT22;4335;48.860;9.198;2022-12-29T11:13:46;13.10;99.90
8595;DHT22;4335;48.860;9.198;2022-12-29T11:16:14;13.10;99.90
8595;DHT22;4335;48.860;9.198;2022-12-29T11:18:46;13.20;99.90
8595;DHT22;4335;48.860;9.198;2022-12-29T11:21:27;13.20;99.90
8595;DHT22;4335;48.860;9.198;2022-12-29T11:23:59;13.30;99.90
8595;DHT22;4335;48.860;9.198;2022-12-29T11:26:28;13.30;99.90
8595;DHT22;4335;48.860;9.198;2022-12-29T11:29:21;13.30;99.90
8595;DHT22;4335;48.860;9.198;2022-12-29T11:31:50;13.30;99.90
8595;DHT22;4335;48.860;9.198;2022-12-29T11:34:20;13.30;99.90
8595;DHT22;4335;48.860;9.198;2022-12-29T11:36:52;13.30;99.90
8595;DHT22;4335;48.860;9.198;2022-12-29T11:39:37;13.30;99.90
8595;DHT22;4335;48.860;9.198;2022-12-29T11:42:12;13.30;99.90
8595;DHT22;4335;48.860;9.198;2022-12-29T11:44:44;13.40;99.90
8595;DHT22;4335;48.860;9.198;2022-12-29T11:47:20;13.30;99.90
8595;DHT22;4335;48.860;9.198;2022-12-29T11:49:50;13.20;99.90
8595;DHT22;4335;48.860;9.198;2022-12-29T11:52:23;13.20;99.90
8595;DHT22;4335;48.860;9.198;2022-12-29T11:54:52;13.10;99.90
8595;DHT22;4335;48.860;9.198;2022-12-29T11:57:22;13.10;99.90
8595;DHT22;4335;48.860;9.198;2022-12-29T11:59:51;13.00;99.90
8595;DHT22;4335;48.860;9.198;2022-12-29T12:02:45;13.00;99.90
8595;DHT22;4335;48.860;9.198;2022-12-29T12:05:28;12.90;99.90
8595;DHT22;4335;48.860;9.198;2022-12-29T12:08:11;12.80;99.90
8595;DHT22;4335;48.860;9.198;2022-12-29T12:10:46;12.90;99.90
8595;DHT22;4335;48.860;9.198;2022-12-29T12:13:20;12.80;99.90
8595;DHT22;4335;48.860;9.198;2022-12-29T12:15:52;12.70;99.90
8595;DHT22;4335;48.860;9.198;2022-12-29T12:18:33;12.70;99.90
8595;DHT22;4335;48.860;9.198;2022-12-29T12:24:08;12.60;99.90
8595;DHT22;4335;48.860;9.198;2022-12-29T12:26:43;12.60;99.90
8595;DHT22;4335;48.860;9.198;2022-12-29T12:29:22;12.70;99.90
8595;DHT22;4335;48.860;9.198;2022-12-29T12:31:58;12.70;99.90
8595;DHT22;4335;48.860;9.198;2022-12-29T12:34:32;12.60;99.90
8595;DHT22;4335;48.860;9.198;2022-12-29T12:37:30;12.60;99.90
8595;DHT22;4335;48.860;9.198;2022-12-29T12:40:15;12.60;99.90
8595;DHT22;4335;48.860;9.198;2022-12-29T12:42:58;12.70;99.90
8595;DHT22;4335;48.860;9.198;2022-12-29T12:45:42;12.60;99.90
8595;DHT22;4335;48.860;9.198;2022-12-29T12:48:28;12.70;99.90
8595;DHT22;4335;48.860;9.198;2022-12-29T12:51:05;12.70;99.90
8595;DHT22;4335;48.860;9.198;2022-12-29T12:53:58;12.80;99.90
8595;DHT22;4335;48.860;9.198;2022-12-29T12:59:36;12.90;99.90
8595;DHT22;4335;48.860;9.198;2022-12-29T13:05:20;13.10;99.90
8595;DHT22;4335;48.860;9.198;2022-12-29T13:08:02;13.10;99.90
8595;DHT22;4335;48.860;9.198;2022-12-29T13:10:41;13.10;99.90
8595;DHT22;4335;48.860;9.198;2022-12-29T13:16:27;13.20;99.90
8595;DHT22;4335;48.860;9.198;2022-12-29T13:19:04;13.20;99.90
8595;DHT22;4335;48.860;9.198;2022-12-29T13:21:55;13.10;99.90
8595;DHT22;4335;48.860;9.198;2022-12-29T13:24:31;13.10;99.90
8595;DHT22;4335;48.860;9.198;2022-12-29T13:27:08;13.00;99.90
8595;DHT22;4335;48.860;9.198;2022-12-29T13:29:50;13.00;99.90
8595;DHT22;4335;48.860;9.198;2022-12-29T13:32:27;13.00;99.90
8595;DHT22;4335;48.860;9.198;2022-12-29T13:35:14;13.00;99.90
8595;DHT22;4335;48.860;9.198;2022-12-29T13:37:48;12.90;99.90
8595;DHT22;4335;48.860;9.198;2022-12-29T13:40:24;12.90;99.90
8595;DHT22;4335;48.860;9.198;2022-12-29T13:42:52;12.90;99.90
8595;DHT22;4335;48.860;9.198;2022-12-29T13:45:29;12.80;99.90
8595;DHT22;4335;48.860;9.198;2022-12-29T13:48:01;12.80;99.90
8595;DHT22;4335;48.860;9.198;2022-12-29T13:50:34;12.80;99.90
8595;DHT22;4335;48.860;9.198;2022-12-29T13:53:06;12.80;99.90
8595;DHT22;4335;48.860;9.198;2022-12-29T13:55:45;12.80;99.90
8595;DHT22;4335;48.860;9.198;2022-12-29T13:58:24;12.80;99.90
8595;DHT22;4335;48.860;9.198;2022-12-29T14:01:00;12.80;99.90
8595;DHT22;4335;48.860;9.198;2022-12-29T14:03:46;12.70;99.90
8595;DHT22;4335;48.860;9.198;2022-12-29T14:06:23;12.70;99.90
8595;DHT22;4335;48.860;9.198;2022-12-29T14:08:54;12.70;99.90
8595;DHT22;4335;48.860;9.198;2022-12-29T14:11:31;12.70;99.90
8595;DHT22;4335;48.860;9.198;2022-12-29T14:14:00;12.70;99.90
8595;DHT22;4335;48.860;9.198;2022-12-29T14:16:39;12.80;99.90
8595;DHT22;4335;48.860;9.198;2022-12-29T14:19:16;12.80;99.90
8595;DHT22;4335;48.860;9.198;2022-12-29T14:21:51;12.70;99.90
8595;DHT22;4335;48.860;9.198;2022-12-29T14:24:43;12.70;99.90
8595;DHT22;4335;48.860;9.198;2022-12-29T14:27:43;12.60;99.90
8595;DHT22;4335;48.860;9.198;2022-12-29T14:33:30;12.50;99.90
8595;DHT22;4335;48.860;9.198;2022-12-29T14:36:18;12.60;99.90
8595;DHT22;4335;48.860;9.198;2022-12-29T14:38:47;12.60;99.90
8595;DHT22;4335;48.860;9.198;2022-12-29T14:41:26;12.60;99.90
8595;DHT22;4335;48.860;9.198;2022-12-29T14:44:08;12.60;99.90
8595;DHT22;4335;48.860;9.198;2022-12-29T14:46:49;12.60;99.90
8595;DHT22;4335;48.860;9.198;2022-12-29T14:49:25;12.50;99.90
8595;DHT22;4335;48.860;9.198;2022-12-29T14:52:03;12.40;99.90
8595;DHT22;4335;48.860;9.198;2022-12-29T14:54:49;12.40;99.90
8595;DHT22;4335;48.860;9.198;2022-12-29T15:00:22;12.30;99.90
8595;DHT22;4335;48.860;9.198;2022-12-29T15:03:03;12.30;99.90
8595;DHT22;4335;48.860;9.198;2022-12-29T15:05:36;12.30;99.90
8595;DHT22;4335;48.860;9.198;2022-12-29T15:08:05;12.40;99.90
8595;DHT22;4335;48.860;9.198;2022-12-29T15:10:42;12.30;99.90
8595;DHT22;4335;48.860;9.198;2022-12-29T15:13:16;12.30;99.90
8595;DHT22;4335;48.860;9.198;2022-12-29T15:15:43;12.30;99.90
8595;DHT22;4335;48.860;9.198;2022-12-29T15:18:23;12.30;99.90
8595;DHT22;4335;48.860;9.198;2022-12-29T15:20:56;12.20;99.90
8595;DHT22;4335;48.860;9.198;2022-12-29T15:23:25;12.10;99.90
8595;DHT22;4335;48.860;9.198;2022-12-29T15:25:55;12.10;99.90
8595;DHT22;4335;48.860;9.198;2022-12-29T15:28:23;12.10;99.90
8595;DHT22;4335;48.860;9.198;2022-12-29T15:30:53;12.00;99.90
8595;DHT22;4335;48.860;9.198;2022-12-29T15:33:26;12.00;99.90
8595;DHT22;4335;48.860;9.198;2022-12-29T15:35:56;12.00;99.90
8595;DHT22;4335;48.860;9.198;2022-12-29T15:38:26;12.00;99.90
8595;DHT22;4335;48.860;9.198;2022-12-29T15:40:57;12.10;99.90
8595;DHT22;4335;48.860;9.198;2022-12-29T15:43:45;12.00;99.90
8595;DHT22;4335;48.860;9.198;2022-12-29T15:46:16;11.80;99.90
8595;DHT22;4335;48.860;9.198;2022-12-29T15:48:44;11.40;99.90
8595;DHT22;4335;48.860;9.198;2022-12-29T15:51:18;11.20;99.90
8595;DHT22;4335;48.860;9.198;2022-12-29T15:53:47;11.00;99.90
8595;DHT22;4335;48.860;9.198;2022-12-29T15:56:19;10.90;99.90
8595;DHT22;4335;48.860;9.198;2022-12-29T15:58:48;10.80;99.90
8595;DHT22;4335;48.860;9.198;2022-12-29T16:01:19;10.80;99.90
8595;DHT22;4335;48.860;9.198;2022-12-29T16:03:50;10.70;99.90
8595;DHT22;4335;48.860;9.198;2022-12-29T16:06:33;10.70;99.90
8595;DHT22;4335;48.860;9.198;2022-12-29T16:09:05;10.70;99.90
8595;DHT22;4335;48.860;9.198;2022-12-29T16:11:35;10.60;99.90
8595;DHT22;4335;48.860;9.198;2022-12-29T16:14:08;10.60;99.90
8595;DHT22;4335;48.860;9.198;2022-12-29T16:16:38;10.60;99.90
8595;DHT22;4335;48.860;9.198;2022-12-29T16:19:12;10.60;99.90
8595;DHT22;4335;48.860;9.198;2022-12-29T16:21:42;10.60;99.90
8595;DHT22;4335;48.860;9.198;2022-12-29T16:24:13;10.50;99.90
8595;DHT22;4335;48.860;9.198;2022-12-29T16:26:47;10.50;99.90
8595;DHT22;4335;48.860;9.198;2022-12-29T16:29:21;10.40;99.90
8595;DHT22;4335;48.860;9.198;2022-12-29T16:31:51;10.40;99.90
8595;DHT22;4335;48.860;9.198;2022-12-29T16:34:32;10.30;99.90
8595;DHT22;4335;48.860;9.198;2022-12-29T16:37:02;10.30;99.90
8595;DHT22;4335;48.860;9.198;2022-12-29T16:39:34;10.30;99.90
8595;DHT22;4335;48.860;9.198;2022-12-29T16:42:33;10.20;99.90
8595;DHT22;4335;48.860;9.198;2022-12-29T16:48:20;10.20;99.90
8595;DHT22;4335;48.860;9.198;2022-12-29T16:50:48;10.20;99.90
8595;DHT22;4335;48.860;9.198;2022-12-29T16:53:21;10.20;99.90
8595;DHT22;4335;48.860;9.198;2022-12-29T16:55:53;10.10;99.90
8595;DHT22;4335;48.860;9.198;2022-12-29T16:58:22;10.00;99.90
8595;DHT22;4335;48.860;9.198;2022-12-29T17:00:52;10.10;99.90
8595;DHT22;4335;48.860;9.198;2022-12-29T17:03:22;10.10;99.90
8595;DHT22;4335;48.860;9.198;2022-12-29T17:05:50;10.10;99.90
8595;DHT22;4335;48.860;9.198;2022-12-29T17:08:20;10.10;99.90
8595;DHT22;4335;48.860;9.198;2022-12-29T17:10:49;10.10;99.90
8595;DHT22;4335;48.860;9.198;2022-12-29T17:13:35;10.00;99.90